createdAt,value
2018-12-17T00:00:34.373Z,101574.69
2018-12-17T00:01:35.194Z,101574.85
2018-12-17T00:02:34.646Z,101574.52
2018-12-17T00:03:35.108Z,101574.52
2018-12-17T00:04:36.683Z,101574.35
2018-12-17T00:05:41.757Z,101573.85
2018-12-17T00:06:37.192Z,101573.69
2018-12-17T00:07:37.889Z,101573.52
2018-12-17T00:08:38.613Z,101573.19
2018-12-17T00:09:39.357Z,101572.69
2018-12-17T00:10:40.240Z,101572.19
2018-12-17T00:11:40.968Z,101571.92
2018-12-17T00:12:41.276Z,101571.66
2018-12-17T00:13:41.764Z,101570.91
2018-12-17T00:14:42.529Z,101571.08
2018-12-17T00:15:43.333Z,101570.68
2018-12-17T00:16:43.838Z,101570.34
2018-12-17T00:17:44.108Z,101569.76
2018-12-17T00:18:44.662Z,101569.42
2018-12-17T00:19:44.800Z,101568.75
2018-12-17T00:20:46.249Z,101568.59
2018-12-17T00:21:46.894Z,101568.16
2018-12-17T00:21:55.172Z,101564.94
2018-12-17T00:22:56.999Z,101564.51
2018-12-17T00:23:56.301Z,101563.92
2018-12-17T00:24:56.730Z,101563.48
2018-12-17T00:25:57.136Z,101563.16
2018-12-17T00:26:57.780Z,101562.34
2018-12-17T00:27:58.967Z,101562.36
2018-12-17T00:28:59.115Z,101562.34
2018-12-17T00:30:00.138Z,101562.35
2018-12-17T00:31:01.098Z,101562.43
2018-12-17T00:32:01.830Z,101562.93
2018-12-17T00:33:02.762Z,101563.43
2018-12-17T00:34:03.445Z,101562.91
2018-12-17T00:35:04.256Z,101563.35
2018-12-17T00:36:05.241Z,101563.59
2018-12-17T00:37:05.894Z,101563.83
2018-12-17T00:38:06.916Z,101564.33
2018-12-17T00:39:07.706Z,101564.73
2018-12-17T00:40:08.181Z,101565.19
2018-12-17T00:41:08.692Z,101565.59
2018-12-17T00:42:10.304Z,101566.16
2018-12-17T00:43:10.778Z,101566.94
2018-12-17T00:44:11.238Z,101567.52
2018-12-17T00:45:11.776Z,101567.59
2018-12-17T00:46:12.253Z,101568.66
2018-12-17T00:47:11.803Z,101569.44
2018-12-17T00:48:13.595Z,101570.67
2018-12-17T00:49:14.060Z,101571.33
2018-12-17T00:50:14.695Z,101572.60
2018-12-17T00:51:15.160Z,101573.51
2018-12-17T00:52:15.665Z,101574.17
2018-12-17T00:53:16.204Z,101574.75
2018-12-17T00:54:16.656Z,101575.25
2018-12-17T00:55:17.194Z,101576.08
2018-12-17T00:56:17.640Z,101577.17
2018-12-17T00:57:18.170Z,101577.17
2018-12-17T00:58:19.194Z,101577.44
2018-12-17T00:59:19.777Z,101577.83
2018-12-17T01:00:20.447Z,101578.08
2018-12-17T01:01:20.926Z,101578.34
2018-12-17T01:02:21.617Z,101578.27
2018-12-17T01:03:22.268Z,101577.83
2018-12-17T01:04:22.896Z,101578.18
2018-12-17T01:05:23.665Z,101578.44
2018-12-17T01:06:24.274Z,101578.76
2018-12-17T01:07:24.899Z,101578.68
2018-12-17T01:08:25.477Z,101578.67
2018-12-17T01:09:26.011Z,101578.59
2018-12-17T01:10:26.791Z,101578.69
2018-12-17T01:11:27.511Z,101578.84
2018-12-17T01:12:28.983Z,101579.26
2018-12-17T01:13:28.632Z,101579.59
2018-12-17T01:14:29.224Z,101580.42
2018-12-17T01:15:29.703Z,101581.35
2018-12-17T01:16:30.442Z,101581.74
2018-12-17T01:17:30.993Z,101582.00
2018-12-17T01:18:31.787Z,101582.76
2018-12-17T01:19:32.239Z,101583.58
2018-12-17T01:20:32.777Z,101584.09
2018-12-17T01:20:41.164Z,101592.59
2018-12-17T01:21:42.656Z,101592.50
2018-12-17T01:22:42.726Z,101592.00
2018-12-17T01:23:43.699Z,101592.00
2018-12-17T01:24:44.186Z,101592.42
2018-12-17T01:25:44.758Z,101592.25
2018-12-17T01:26:45.394Z,101593.11
2018-12-17T01:27:46.094Z,101593.50
2018-12-17T01:28:46.999Z,101593.59
2018-12-17T01:29:47.621Z,101594.11
2018-12-17T01:30:48.068Z,101594.76
2018-12-17T01:31:48.552Z,101594.52
2018-12-17T01:32:49.375Z,101595.33
2018-12-17T01:33:49.918Z,101596.35
2018-12-17T01:34:49.437Z,101597.17
2018-12-17T01:35:50.900Z,101598.36
2018-12-17T01:36:51.191Z,101599.17
2018-12-17T01:37:51.548Z,101600.25
2018-12-17T01:38:52.067Z,101601.10
2018-12-17T01:39:52.515Z,101601.59
2018-12-17T01:40:52.880Z,101603.16
2018-12-17T01:41:53.467Z,101603.94
2018-12-17T01:42:54.175Z,101604.59
2018-12-17T01:43:55.059Z,101605.34
2018-12-17T01:44:55.539Z,101606.02
2018-12-17T01:45:55.969Z,101606.94
2018-12-17T01:46:56.851Z,101607.51
2018-12-17T01:47:57.487Z,101608.92
2018-12-17T01:48:58.293Z,101610.03
2018-12-17T01:49:58.824Z,101610.52
2018-12-17T01:50:59.267Z,101611.42
2018-12-17T01:51:59.762Z,101611.84
2018-12-17T01:53:00.304Z,101612.35
2018-12-17T01:54:00.782Z,101612.92
2018-12-17T01:55:01.291Z,101612.78
2018-12-17T01:56:01.725Z,101612.77
2018-12-17T01:57:02.166Z,101613.08
2018-12-17T01:58:02.682Z,101613.27
2018-12-17T01:59:03.199Z,101613.58
2018-12-17T02:00:04.107Z,101613.51
2018-12-17T02:01:04.595Z,101613.53
2018-12-17T02:02:05.440Z,101613.42
2018-12-17T02:03:06.330Z,101614.20
2018-12-17T02:04:07.093Z,101614.09
2018-12-17T02:04:15.962Z,101618.60
2018-12-17T02:05:16.456Z,101618.18
2018-12-17T02:06:17.014Z,101617.84
2018-12-17T02:07:17.480Z,101617.84
2018-12-17T02:08:18.002Z,101617.84
2018-12-17T02:09:19.579Z,101618.27
2018-12-17T02:10:19.181Z,101618.66
2018-12-17T02:11:20.046Z,101618.16
2018-12-17T02:12:20.772Z,101618.76
2018-12-17T02:13:21.642Z,101619.18
2018-12-17T02:14:22.141Z,101619.77
2018-12-17T02:15:22.772Z,101620.16
2018-12-17T02:16:22.248Z,101620.16
2018-12-17T02:17:23.814Z,101621.09
2018-12-17T02:18:24.740Z,101621.84
2018-12-17T02:19:25.463Z,101622.61
2018-12-17T02:20:26.284Z,101623.34
2018-12-17T02:21:26.948Z,101623.67
2018-12-17T02:22:27.431Z,101624.43
2018-12-17T02:23:27.082Z,101624.59
2018-12-17T02:24:28.783Z,101624.59
2018-12-17T02:25:29.467Z,101625.19
2018-12-17T02:26:30.061Z,101625.52
2018-12-17T02:27:30.542Z,101625.69
2018-12-17T02:28:36.094Z,101625.86
2018-12-17T02:29:31.037Z,101626.36
2018-12-17T02:30:32.118Z,101626.69
2018-12-17T02:31:32.596Z,101627.02
2018-12-17T02:32:33.165Z,101627.52
2018-12-17T02:33:33.638Z,101628.25
2018-12-17T02:34:34.051Z,101628.36
2018-12-17T02:35:34.561Z,101629.36
2018-12-17T02:36:35.096Z,101629.69
2018-12-17T02:37:35.577Z,101630.52
2018-12-17T02:38:36.557Z,101630.93
2018-12-17T02:39:37.142Z,101631.34
2018-12-17T02:40:37.657Z,101631.62
2018-12-17T02:41:38.308Z,101632.36
2018-12-17T02:42:38.715Z,101633.27
2018-12-17T02:43:39.351Z,101634.67
2018-12-17T02:44:39.795Z,101635.36
2018-12-17T02:45:40.493Z,101636.27
2018-12-17T02:46:40.998Z,101637.01
2018-12-17T02:47:41.562Z,101638.02
2018-12-17T02:48:42.505Z,101638.84
2018-12-17T02:49:43.008Z,101640.01
2018-12-17T02:50:43.727Z,101640.45
2018-12-17T02:50:52.056Z,101652.80
2018-12-17T02:51:53.409Z,101652.38
2018-12-17T02:52:54.364Z,101652.53
2018-12-17T02:53:54.822Z,101653.30
2018-12-17T02:54:55.726Z,101652.96
2018-12-17T02:55:56.246Z,101653.36
2018-12-17T02:56:56.782Z,101653.69
2018-12-17T02:57:56.848Z,101653.95
2018-12-17T02:58:57.288Z,101654.20
2018-12-17T02:59:57.827Z,101654.80
2018-12-17T03:00:58.646Z,101654.80
2018-12-17T03:01:59.094Z,101655.36
2018-12-17T03:03:00.036Z,101656.12
2018-12-17T03:04:00.682Z,101656.87
2018-12-17T03:05:01.401Z,101658.03
2018-12-17T03:06:01.019Z,101658.45
2018-12-17T03:07:02.565Z,101660.28
2018-12-17T03:08:03.000Z,101661.03
2018-12-17T03:09:03.480Z,101662.30
2018-12-17T03:10:04.081Z,101663.55
2018-12-17T03:11:04.533Z,101664.39
2018-12-17T03:12:05.087Z,101664.89
2018-12-17T03:13:05.704Z,101666.45
2018-12-17T03:14:06.197Z,101667.28
2018-12-17T03:15:06.883Z,101667.72
2018-12-17T03:16:07.467Z,101668.05
2018-12-17T03:17:08.239Z,101668.30
2018-12-17T03:18:08.671Z,101668.38
2018-12-17T03:19:09.618Z,101669.04
2018-12-17T03:20:10.135Z,101669.11
2018-12-17T03:21:10.652Z,101670.04
2018-12-17T03:22:11.166Z,101669.88
2018-12-17T03:23:11.590Z,101669.97
2018-12-17T03:24:12.081Z,101670.05
2018-12-17T03:25:12.574Z,101670.05
2018-12-17T03:26:13.062Z,101669.89
2018-12-17T03:27:13.646Z,101670.21
2018-12-17T03:28:14.150Z,101670.63
2018-12-17T03:29:14.801Z,101670.80
2018-12-17T03:30:15.537Z,101671.64
2018-12-17T03:31:16.019Z,101671.89
2018-12-17T03:32:15.701Z,101672.78
2018-12-17T03:33:17.532Z,101672.89
2018-12-17T03:34:16.926Z,101672.70
2018-12-17T03:35:18.420Z,101673.13
2018-12-17T03:36:18.940Z,101673.64
2018-12-17T03:37:19.412Z,101673.56
2018-12-17T03:37:27.822Z,101675.97
2018-12-17T03:38:29.006Z,101675.71
2018-12-17T03:39:29.715Z,101675.38
2018-12-17T03:40:30.450Z,101674.95
2018-12-17T03:41:31.074Z,101674.78
2018-12-17T03:42:31.668Z,101674.78
2018-12-17T03:43:32.148Z,101675.13
2018-12-17T03:44:32.643Z,101675.55
2018-12-17T03:45:33.102Z,101675.55
2018-12-17T03:46:33.601Z,101675.97
2018-12-17T03:47:34.123Z,101676.30
2018-12-17T03:48:34.830Z,101676.20
2018-12-17T03:49:35.467Z,101676.95
2018-12-17T03:50:35.954Z,101677.72
2018-12-17T03:51:35.407Z,101678.05
2018-12-17T03:52:37.040Z,101678.38
2018-12-17T03:53:37.485Z,101679.38
2018-12-17T03:54:38.146Z,101679.62
2018-12-17T03:55:38.713Z,101679.64
2018-12-17T03:56:39.363Z,101679.88
2018-12-17T03:57:39.960Z,101679.53
2018-12-17T03:58:39.435Z,101680.14
2018-12-17T03:59:40.621Z,101680.29
2018-12-17T04:00:41.055Z,101679.97
2018-12-17T04:01:41.898Z,101679.95
2018-12-17T04:02:42.871Z,101680.14
2018-12-17T04:03:43.497Z,101680.45
2018-12-17T04:04:44.062Z,101680.30
2018-12-17T04:05:44.542Z,101680.56
2018-12-17T04:06:45.006Z,101681.22
2018-12-17T04:07:45.406Z,101680.70
2018-12-17T04:08:45.960Z,101680.81
2018-12-17T04:09:46.543Z,101681.13
2018-12-17T04:10:46.559Z,101681.14
2018-12-17T04:11:46.093Z,101680.89
2018-12-17T04:12:47.774Z,101680.48
2018-12-17T04:13:48.217Z,101680.14
2018-12-17T04:14:48.872Z,101679.80
2018-12-17T04:15:49.369Z,101679.89
2018-12-17T04:16:48.737Z,101679.22
2018-12-17T04:17:50.219Z,101679.13
2018-12-17T04:18:50.741Z,101679.12
2018-12-17T04:19:51.610Z,101678.88
2018-12-17T04:20:51.966Z,101678.47
2018-12-17T04:21:53.010Z,101678.45
2018-12-17T04:22:51.870Z,101678.22
2018-12-17T04:23:53.743Z,101678.12
2018-12-17T04:24:54.311Z,101677.89
2018-12-17T04:25:54.953Z,101677.12
2018-12-17T04:26:03.291Z,101667.73
2018-12-17T04:27:04.655Z,101667.64
2018-12-17T04:28:05.173Z,101668.39
2018-12-17T04:29:06.965Z,101668.56
2018-12-17T04:30:05.162Z,101668.66
2018-12-17T04:31:06.664Z,101669.64
2018-12-17T04:32:07.145Z,101670.48
2018-12-17T04:33:07.634Z,101671.07
2018-12-17T04:34:08.032Z,101672.62
2018-12-17T04:35:08.635Z,101673.78
2018-12-17T04:36:09.481Z,101675.31
2018-12-17T04:37:09.930Z,101676.22
2018-12-17T04:38:10.452Z,101678.21
2018-12-17T04:39:10.917Z,101679.95
2018-12-17T04:40:11.419Z,101682.22
2018-12-17T04:41:12.139Z,101684.54
2018-12-17T04:42:12.871Z,101686.95
2018-12-17T04:43:13.266Z,101689.17
2018-12-17T04:44:13.795Z,101692.17
2018-12-17T04:45:14.478Z,101694.20
2018-12-17T04:46:14.906Z,101696.19
2018-12-17T04:47:15.498Z,101698.41
2018-12-17T04:48:15.889Z,101699.57
2018-12-17T04:49:16.361Z,101701.33
2018-12-17T04:50:16.873Z,101702.58
2018-12-17T04:51:17.359Z,101704.16
2018-12-17T04:52:17.736Z,101705.23
2018-12-17T04:53:18.332Z,101706.50
2018-12-17T04:54:18.764Z,101708.30
2018-12-17T04:55:19.195Z,101709.81
2018-12-17T04:56:19.643Z,101711.62
2018-12-17T04:57:20.067Z,101712.69
2018-12-17T04:58:20.456Z,101714.27
2018-12-17T04:59:21.010Z,101716.02
2018-12-17T05:00:21.615Z,101717.59
2018-12-17T05:01:22.333Z,101719.00
2018-12-17T05:02:22.752Z,101720.50
2018-12-17T05:03:23.108Z,101721.81
2018-12-17T05:04:23.528Z,101722.48
2018-12-17T05:05:23.992Z,101723.21
2018-12-17T05:06:24.575Z,101724.20
2018-12-17T05:07:25.027Z,101724.81
2018-12-17T05:08:25.963Z,101725.29
2018-12-17T05:09:26.353Z,101725.80
2018-12-17T05:10:26.980Z,101726.05
2018-12-17T05:10:35.006Z,101736.17
2018-12-17T05:11:36.331Z,101735.91
2018-12-17T05:12:37.118Z,101735.91
2018-12-17T05:13:37.501Z,101736.08
2018-12-17T05:14:37.959Z,101736.41
2018-12-17T05:15:38.756Z,101736.41
2018-12-17T05:16:39.142Z,101736.91
2018-12-17T05:17:39.635Z,101737.08
2018-12-17T05:18:40.094Z,101737.41
2018-12-17T05:19:40.555Z,101738.58
2018-12-17T05:20:41.053Z,101738.81
2018-12-17T05:21:41.437Z,101739.55
2018-12-17T05:22:41.842Z,101740.33
2018-12-17T05:23:42.383Z,101740.64
2018-12-17T05:24:42.920Z,101741.55
2018-12-17T05:25:43.330Z,101741.63
2018-12-17T05:26:43.713Z,101742.37
2018-12-17T05:27:44.353Z,101743.03
2018-12-17T05:28:45.121Z,101744.03
2018-12-17T05:29:45.731Z,101745.19
2018-12-17T05:30:46.129Z,101746.28
2018-12-17T05:31:46.597Z,101747.34
2018-12-17T05:32:46.928Z,101748.50
2018-12-17T05:33:47.474Z,101749.83
2018-12-17T05:34:48.176Z,101750.31
2018-12-17T05:35:48.759Z,101751.31
2018-12-17T05:36:49.281Z,101752.98
2018-12-17T05:37:49.667Z,101754.46
2018-12-17T05:38:50.135Z,101755.73
2018-12-17T05:39:50.554Z,101757.23
2018-12-17T05:40:50.976Z,101758.56
2018-12-17T05:41:51.502Z,101759.79
2018-12-17T05:42:52.227Z,101760.88
2018-12-17T05:43:51.672Z,101762.14
2018-12-17T05:44:53.124Z,101763.80
2018-12-17T05:45:53.827Z,101765.14
2018-12-17T05:46:54.334Z,101766.13
2018-12-17T05:47:54.928Z,101767.55
2018-12-17T05:48:55.587Z,101768.66
2018-12-17T05:49:56.083Z,101769.83
2018-12-17T05:50:56.562Z,101770.31
2018-12-17T05:51:57.147Z,101771.74
2018-12-17T05:52:57.806Z,101772.58
2018-12-17T05:53:58.212Z,101773.26
2018-12-17T05:54:58.629Z,101773.77
2018-12-17T05:55:59.250Z,101774.53
2018-12-17T05:56:09.177Z,101788.88
2018-12-17T05:57:10.587Z,101788.64
2018-12-17T05:58:11.175Z,101788.98
2018-12-17T05:59:11.706Z,101789.14
2018-12-17T06:00:12.154Z,101788.98
2018-12-17T06:01:12.596Z,101789.54
2018-12-17T06:02:13.076Z,101789.97
2018-12-17T06:03:13.529Z,101790.63
2018-12-17T06:04:14.059Z,101791.30
2018-12-17T06:05:14.432Z,101791.95
2018-12-17T06:06:15.057Z,101793.23
2018-12-17T06:07:15.636Z,101793.89
2018-12-17T06:08:15.987Z,101794.58
2018-12-17T06:09:16.916Z,101795.49
2018-12-17T06:10:17.434Z,101795.98
2018-12-17T06:11:17.901Z,101796.73
2018-12-17T06:12:18.559Z,101797.41
2018-12-17T06:13:19.520Z,101798.07
2018-12-17T06:14:20.367Z,101798.75
2018-12-17T06:15:20.836Z,101799.17
2018-12-17T06:16:20.150Z,101799.33
2018-12-17T06:17:21.831Z,101800.01
2018-12-17T06:18:22.201Z,101801.00
2018-12-17T06:19:22.531Z,101801.69
2018-12-17T06:20:23.001Z,101802.17
2018-12-17T06:21:23.359Z,101802.52
2018-12-17T06:22:24.131Z,101803.11
2018-12-17T06:23:24.605Z,101803.85
2018-12-17T06:24:24.988Z,101804.53
2018-12-17T06:25:25.562Z,101805.55
2018-12-17T06:26:26.092Z,101806.29
2018-12-17T06:27:26.508Z,101807.20
2018-12-17T06:28:26.829Z,101807.88
2018-12-17T06:29:27.230Z,101808.45
2018-12-17T06:30:27.746Z,101809.04
2018-12-17T06:31:28.066Z,101809.78
2018-12-17T06:32:28.514Z,101810.91
2018-12-17T06:33:28.975Z,101811.81
2018-12-17T06:34:29.678Z,101813.06
2018-12-17T06:35:30.312Z,101814.23
2018-12-17T06:36:30.775Z,101815.15
2018-12-17T06:37:30.925Z,101815.67
2018-12-17T06:38:31.391Z,101816.58
2018-12-17T06:39:31.919Z,101817.66
2018-12-17T06:40:32.497Z,101818.19
2018-12-17T06:40:40.817Z,101833.22
2018-12-17T06:41:42.243Z,101829.87
2018-12-17T06:42:42.666Z,101830.13
2018-12-17T06:43:42.787Z,101830.45
2018-12-17T06:44:43.101Z,101831.21
2018-12-17T06:45:43.485Z,101831.38
2018-12-17T06:46:43.881Z,101831.64
2018-12-17T06:47:44.306Z,101832.03
2018-12-17T06:48:44.712Z,101832.30
2018-12-17T06:49:45.102Z,101832.45
2018-12-17T06:50:45.757Z,101833.13
2018-12-17T06:51:46.488Z,101833.13
2018-12-17T06:52:47.243Z,101833.22
2018-12-17T06:53:47.587Z,101833.54
2018-12-17T06:54:54.594Z,101833.63
2018-12-17T06:55:47.363Z,101833.22
2018-12-17T06:56:48.849Z,101832.95
2018-12-17T06:57:49.216Z,101833.14
2018-12-17T06:58:49.636Z,101833.63
2018-12-17T06:59:50.013Z,101834.48
2018-12-17T07:00:50.347Z,101834.97
2018-12-17T07:01:50.847Z,101835.91
2018-12-17T07:02:51.426Z,101836.99
2018-12-17T07:03:52.042Z,101837.14
2018-12-17T07:04:52.712Z,101838.23
2018-12-17T07:05:53.209Z,101838.91
2018-12-17T07:06:53.665Z,101839.83
2018-12-17T07:07:54.126Z,101840.74
2018-12-17T07:08:54.630Z,101841.16
2018-12-17T07:09:54.981Z,101842.16
2018-12-17T07:10:55.362Z,101842.11
2018-12-17T07:11:55.747Z,101842.91
2018-12-17T07:12:56.186Z,101843.20
2018-12-17T07:13:56.945Z,101843.78
2018-12-17T07:14:57.486Z,101844.36
2018-12-17T07:15:57.964Z,101844.88
2018-12-17T07:16:58.378Z,101845.45
2018-12-17T07:17:58.701Z,101846.20
2018-12-17T07:18:59.198Z,101847.12
2018-12-17T07:19:59.527Z,101847.47
2018-12-17T07:21:00.076Z,101848.22
2018-12-17T07:21:59.461Z,101848.96
2018-12-17T07:23:00.844Z,101849.63
2018-12-17T07:24:01.191Z,101850.47
2018-12-17T07:25:01.759Z,101851.06
2018-12-17T07:26:02.171Z,101852.05
2018-12-17T07:27:02.645Z,101852.73
2018-12-17T07:27:10.791Z,101866.38
2018-12-17T07:28:11.166Z,101873.84
2018-12-17T07:29:13.022Z,101873.34
2018-12-17T07:30:14.678Z,101873.00
2018-12-17T07:31:14.264Z,101872.77
2018-12-17T07:32:14.775Z,101872.43
2018-12-17T07:33:15.089Z,101872.36
2018-12-17T07:34:15.652Z,101872.36
2018-12-17T07:35:15.851Z,101872.42
2018-12-17T07:36:16.379Z,101872.84
2018-12-17T07:37:16.779Z,101873.44
2018-12-17T07:38:17.276Z,101874.03
2018-12-17T07:39:18.029Z,101874.76
2018-12-17T07:40:18.367Z,101875.85
2018-12-17T07:41:18.867Z,101877.11
2018-12-17T07:42:19.256Z,101878.20
2018-12-17T07:43:20.033Z,101879.27
2018-12-17T07:44:19.440Z,101879.77
2018-12-17T07:45:20.835Z,101881.45
2018-12-17T07:46:21.519Z,101882.55
2018-12-17T07:47:21.986Z,101882.88
2018-12-17T07:48:22.493Z,101883.88
2018-12-17T07:49:23.074Z,101884.63
2018-12-17T07:50:23.554Z,101885.19
2018-12-17T07:51:24.089Z,101886.55
2018-12-17T07:52:24.527Z,101887.30
2018-12-17T07:53:25.002Z,101888.80
2018-12-17T07:54:25.419Z,101889.64
2018-12-17T07:55:25.717Z,101890.04
2018-12-17T07:56:26.099Z,101891.32
2018-12-17T07:57:26.695Z,101892.47
2018-12-17T07:58:27.111Z,101893.56
2018-12-17T07:59:27.506Z,101895.05
2018-12-17T08:00:27.925Z,101896.08
2018-12-17T08:01:28.597Z,101897.39
2018-12-17T08:02:29.338Z,101898.25
2018-12-17T08:03:29.735Z,101899.66
2018-12-17T08:04:30.308Z,101901.41
2018-12-17T08:05:30.721Z,101902.90
2018-12-17T08:06:31.184Z,101904.68
2018-12-17T08:07:31.800Z,101906.09
2018-12-17T08:08:35.565Z,101907.67
2018-12-17T08:09:31.897Z,101909.34
2018-12-17T08:10:33.313Z,101911.09
2018-12-17T08:11:33.387Z,101912.77
2018-12-17T08:12:34.259Z,101914.78
2018-12-17T08:13:34.693Z,101916.86
2018-12-17T08:14:34.090Z,101918.27
2018-12-17T08:14:42.429Z,101949.55
2018-12-17T08:15:43.789Z,101948.65
2018-12-17T08:16:44.240Z,101948.98
2018-12-17T08:17:44.619Z,101948.55
2018-12-17T08:18:45.171Z,101948.81
2018-12-17T08:19:45.801Z,101949.55
2018-12-17T08:20:46.193Z,101949.65
2018-12-17T08:21:46.653Z,101949.89
2018-12-17T08:22:47.433Z,101950.39
2018-12-17T08:23:47.805Z,101950.55
2018-12-17T08:24:48.461Z,101951.31
2018-12-17T08:25:49.274Z,101951.81
2018-12-17T08:26:49.668Z,101952.15
2018-12-17T08:27:50.104Z,101952.55
2018-12-17T08:28:50.508Z,101953.30
2018-12-17T08:29:51.085Z,101953.64
2018-12-17T08:30:51.858Z,101954.66
2018-12-17T08:31:52.231Z,101955.22
2018-12-17T08:32:51.813Z,101955.64
2018-12-17T08:33:53.230Z,101956.30
2018-12-17T08:34:53.944Z,101957.23
2018-12-17T08:35:54.503Z,101957.98
2018-12-17T08:36:54.600Z,101958.58
2018-12-17T08:37:56.203Z,101959.64
2018-12-17T08:38:55.640Z,101960.14
2018-12-17T08:39:56.235Z,101960.64
2018-12-17T08:40:56.873Z,101961.33
2018-12-17T08:41:57.256Z,101962.56
2018-12-17T08:42:58.038Z,101962.97
2018-12-17T08:43:58.479Z,101963.97
2018-12-17T08:44:58.898Z,101964.47
2018-12-17T08:45:59.306Z,101964.91
2018-12-17T08:46:59.898Z,101965.98
2018-12-17T08:48:00.293Z,101966.31
2018-12-17T08:49:00.682Z,101966.57
2018-12-17T08:50:01.055Z,101967.25
2018-12-17T08:51:01.645Z,101968.08
2018-12-17T08:52:02.063Z,101968.27
2018-12-17T08:53:02.477Z,101969.18
2018-12-17T08:54:03.169Z,101970.26
2018-12-17T08:55:02.465Z,101971.01
2018-12-17T08:56:03.897Z,101972.19
2018-12-17T08:57:04.269Z,101973.69
2018-12-17T08:58:04.698Z,101974.44
2018-12-17T08:59:05.295Z,101975.87
2018-12-17T09:00:11.019Z,101976.88
2018-12-17T09:01:05.231Z,101977.72
2018-12-17T09:02:06.790Z,101978.95
2018-12-17T09:02:15.127Z,102000.92
2018-12-17T09:03:16.559Z,102001.06
2018-12-17T09:04:17.179Z,102000.73
2018-12-17T09:05:17.859Z,102000.56
2018-12-17T09:06:18.547Z,102000.56
2018-12-17T09:07:19.533Z,102000.66
2018-12-17T09:08:19.930Z,102000.58
2018-12-17T09:09:20.431Z,101999.98
2018-12-17T09:10:20.779Z,102000.00
2018-12-17T09:11:21.140Z,101999.81
2018-12-17T09:12:21.527Z,101999.84
2018-12-17T09:13:21.753Z,101999.99
2018-12-17T09:14:22.166Z,102000.41
2018-12-17T09:15:22.442Z,102000.92
2018-12-17T09:16:22.964Z,102001.41
2018-12-17T09:17:23.302Z,102001.08
2018-12-17T09:18:23.557Z,102002.01
2018-12-17T09:19:23.886Z,102002.08
2018-12-17T09:20:24.317Z,102002.51
2018-12-17T09:21:24.717Z,102003.51
2018-12-17T09:22:25.179Z,102004.44
2018-12-17T09:23:25.601Z,102005.53
2018-12-17T09:24:26.078Z,102006.20
2018-12-17T09:25:26.531Z,102007.69
2018-12-17T09:26:26.901Z,102008.95
2018-12-17T09:27:27.327Z,102009.67
2018-12-17T09:28:27.781Z,102011.36
2018-12-17T09:29:28.591Z,102012.46
2018-12-17T09:30:29.005Z,102014.28
2018-12-17T09:31:29.730Z,102016.30
2018-12-17T09:32:30.279Z,102017.63
2018-12-17T09:33:31.094Z,102018.95
2018-12-17T09:34:31.544Z,102020.64
2018-12-17T09:35:32.197Z,102022.72
2018-12-17T09:36:32.566Z,102024.30
2018-12-17T09:37:33.212Z,102026.25
2018-12-17T09:38:34.026Z,102028.23
2018-12-17T09:39:34.675Z,102029.84
2018-12-17T09:40:35.109Z,102031.86
2018-12-17T09:41:35.705Z,102033.10
2018-12-17T09:42:36.140Z,102034.78
2018-12-17T09:43:36.663Z,102036.28
2018-12-17T09:44:37.261Z,102037.46
2018-12-17T09:45:37.706Z,102039.53
2018-12-17T09:46:38.157Z,102041.47
2018-12-17T09:46:46.470Z,102067.99
2018-12-17T09:47:47.879Z,102070.84
2018-12-17T09:48:48.270Z,102070.84
2018-12-17T09:49:48.751Z,102070.58
2018-12-17T09:50:49.171Z,102070.50
2018-12-17T09:51:49.539Z,102070.77
2018-12-17T09:52:49.931Z,102070.59
2018-12-17T09:53:50.417Z,102070.66
2018-12-17T09:54:50.794Z,102070.75
2018-12-17T09:55:51.156Z,102071.44
2018-12-17T09:56:51.597Z,102072.00
2018-12-17T09:57:52.217Z,102072.86
2018-12-17T09:58:52.669Z,102073.01
2018-12-17T09:59:53.175Z,102074.09
2018-12-17T10:00:53.647Z,102073.68
2018-12-17T10:01:54.382Z,102073.77
2018-12-17T10:02:55.053Z,102073.61
2018-12-17T10:03:55.579Z,102073.37
2018-12-17T10:04:55.097Z,102073.03
2018-12-17T10:05:56.929Z,102072.26
2018-12-17T10:06:57.674Z,102071.95
2018-12-17T10:07:58.578Z,102071.86
2018-12-17T10:08:58.916Z,102072.03
2018-12-17T10:09:59.868Z,102071.87
2018-12-17T10:11:00.224Z,102071.88
2018-12-17T10:12:00.574Z,102071.71
2018-12-17T10:13:01.148Z,102071.53
2018-12-17T10:14:01.511Z,102071.30
2018-12-17T10:15:00.961Z,102070.72
2018-12-17T10:16:02.384Z,102069.78
2018-12-17T10:17:02.683Z,102069.70
2018-12-17T10:18:03.205Z,102069.55
2018-12-17T10:19:03.911Z,102068.72
2018-12-17T10:20:04.378Z,102068.05
2018-12-17T10:21:04.835Z,102067.39
2018-12-17T10:22:05.229Z,102065.91
2018-12-17T10:23:05.744Z,102065.31
2018-12-17T10:24:06.145Z,102064.00
2018-12-17T10:25:06.466Z,102063.26
2018-12-17T10:26:07.024Z,102062.58
2018-12-17T10:27:07.342Z,102062.42
2018-12-17T10:28:07.812Z,102061.86
2018-12-17T10:29:08.291Z,102060.93
2018-12-17T10:30:08.681Z,102060.69
2018-12-17T10:30:17.092Z,102064.12
2018-12-17T10:31:17.913Z,102063.53
2018-12-17T10:32:18.277Z,102063.45
2018-12-17T10:33:18.661Z,102063.67
2018-12-17T10:34:19.005Z,102063.53
2018-12-17T10:35:19.343Z,102063.94
2018-12-17T10:36:19.773Z,102063.92
2018-12-17T10:37:20.128Z,102064.53
2018-12-17T10:38:20.751Z,102065.53
2018-12-17T10:39:21.108Z,102065.95
2018-12-17T10:40:21.660Z,102066.27
2018-12-17T10:41:21.829Z,102066.67
2018-12-17T10:42:22.391Z,102067.51
2018-12-17T10:43:22.661Z,102067.78
2018-12-17T10:44:23.013Z,102067.86
2018-12-17T10:45:23.406Z,102068.53
2018-12-17T10:46:24.065Z,102068.87
2018-12-17T10:47:24.560Z,102069.37
2018-12-17T10:48:24.557Z,102070.44
2018-12-17T10:49:25.186Z,102070.94
2018-12-17T10:50:25.612Z,102071.78
2018-12-17T10:51:26.014Z,102072.34
2018-12-17T10:52:26.659Z,102074.09
2018-12-17T10:53:26.638Z,102074.67
2018-12-17T10:54:27.631Z,102075.36
2018-12-17T10:55:28.000Z,102076.27
2018-12-17T10:56:28.659Z,102076.77
2018-12-17T10:57:29.029Z,102078.11
2018-12-17T10:58:29.452Z,102078.45
2018-12-17T10:59:30.047Z,102078.75
2018-12-17T11:00:30.377Z,102079.34
2018-12-17T11:01:32.466Z,102080.27
2018-12-17T11:02:30.614Z,102080.77
2018-12-17T11:03:32.214Z,102081.25
2018-12-17T11:04:32.516Z,102081.42
2018-12-17T11:05:32.933Z,102081.92
2018-12-17T11:06:33.398Z,102082.41
2018-12-17T11:07:34.019Z,102082.49
2018-12-17T11:08:34.496Z,102082.48
2018-12-17T11:09:34.896Z,102082.72
2018-12-17T11:10:35.641Z,102082.29
2018-12-17T11:11:36.015Z,102081.95
2018-12-17T11:12:36.745Z,102082.05
2018-12-17T11:13:37.290Z,102082.03
2018-12-17T11:13:45.364Z,102082.97
2018-12-17T11:14:46.681Z,102082.41
2018-12-17T11:15:47.435Z,102082.13
2018-12-17T11:16:46.728Z,102082.15
2018-12-17T11:17:48.350Z,102081.73